PWSweather.com
Personal Weather Stations
Station Observations
KCOGRAND2
Redlands, Southcamp Road & Dakota Circle, Grand Junction, CO 81507

Redlands, Southcamp Road & Dakota CircleGrand Junction, CO 81507

Lat: 39.055, Lon: -108.637

Elevation: 4870

Station Type: RadioShack WX200

High Low Average
Temperature 61.9°F16.6°C 33.6°F0.9°C 45.7°F7.6°C
Dew Point 35.8°F2.1°C 4.6°F-15.2°C 29.3°F-1.5°C
Winds 11.0 mph 17.7 kmh Calm Calm 4.0 mph S6.4 kmh S
Wind Gusts 61.1 mph98.3 kmh -- 7.0 mph11.3 kmh
Humidity 90% 11% 66%
Pressure 25.22 in854.0 mb 25.10 in850.0 mb -
Precipitation 0.00 in0.0 mm - -
Hour Temp Dew Point Humidity Winds Wind Gusts Pressure Precip Precip Rate Daily Precip Total
12:04 AM 41.2°F5.1°C 35.8°F2.1°C 81% 2.0 mph SSE3.2 kmh SSE 3.6 mph5.8 kmh 25.10 in850.0 mb 0.00 in0.0 mm 0.00 in/hr0.0 mm/hr 0.00 in0.0 mm
12:09 AM 41.5°F5.3°C 35.8°F2.1°C 80% 1.0 mph SE1.6 kmh SE 4.5 mph7.2 kmh 25.10 in850.0 mb 0.00 in0.0 mm 0.00 in/hr0.0 mm/hr 0.00 in0.0 mm
12:14 AM 41.4°F5.2°C 35.4°F1.9°C 79% 2.0 mph E3.2 kmh E 12.5 mph20.1 kmh 25.10 in850.0 mb 0.00 in0.0 mm 0.00 in/hr0.0 mm/hr 0.00 in0.0 mm
12:19 AM 41.0°F5.0°C 35.2°F1.8°C 80% 3.0 mph E4.8 kmh E 6.9 mph11.1 kmh 25.10 in850.0 mb 0.00 in0.0 mm 0.00 in/hr0.0 mm/hr 0.00 in0.0 mm
12:24 AM 40.5°F4.7°C 35.1°F1.7°C 81% 4.0 mph ENE6.4 kmh ENE 6.9 mph11.1 kmh 25.10 in850.0 mb 0.00 in0.0 mm 0.00 in/hr0.0 mm/hr 0.00 in0.0 mm
12:29 AM 39.9°F4.4°C 35.2°F1.8°C 83% 5.0 mph NE8.0 kmh NE 7.8 mph12.6 kmh 25.10 in850.0 mb 0.00 in0.0 mm 0.00 in/hr0.0 mm/hr 0.00 in0.0 mm
12:34 AM 39.6°F4.2°C 35.1°F1.7°C 84% 5.0 mph N8.0 kmh N 7.8 mph12.6 kmh 25.10 in850.0 mb 0.00 in0.0 mm 0.00 in/hr0.0 mm/hr 0.00 in0.0 mm
12:39 AM 39.2°F4.0°C 35.1°F1.7°C 85% 5.0 mph NNW8.0 kmh NNW 7.4 mph11.9 kmh 25.10 in850.0 mb 0.00 in0.0 mm 0.00 in/hr0.0 mm/hr 0.00 in0.0 mm
12:44 AM 38.7°F3.7°C 34.9°F1.6°C 86% 5.0 mph NW8.0 kmh NW 7.4 mph11.9 kmh 25.13 in851.0 mb 0.00 in0.0 mm 0.00 in/hr0.0 mm/hr 0.00 in0.0 mm
12:50 AM 38.7°F3.7°C 35.1°F1.7°C 87% 5.0 mph NW8.0 kmh NW 7.4 mph11.9 kmh 25.13 in851.0 mb 0.00 in0.0 mm 0.00 in/hr0.0 mm/hr 0.00 in0.0 mm
12:55 AM 38.3°F3.5°C 34.7°F1.5°C 87% 4.0 mph NW6.4 kmh NW 4.5 mph7.2 kmh 25.13 in851.0 mb 0.00 in0.0 mm 0.00 in/hr0.0 mm/hr 0.00 in0.0 mm
01:00 AM 38.1°F3.4°C 34.5°F1.4°C 87% 3.0 mph NW4.8 kmh NW 4.0 mph6.4 kmh 25.13 in851.0 mb 0.00 in0.0 mm 0.00 in/hr0.0 mm/hr 0.00 in0.0 mm
01:05 AM 38.1°F3.4°C 34.9°F1.6°C 88% 3.0 mph NW4.8 kmh NW 4.5 mph7.2 kmh 25.13 in851.0 mb 0.00 in0.0 mm 0.00 in/hr0.0 mm/hr 0.00 in0.0 mm
01:10 AM 38.1°F3.4°C 34.9°F1.6°C 88% 3.0 mph NW4.8 kmh NW 4.0 mph6.4 kmh 25.13 in851.0 mb 0.00 in0.0 mm 0.00 in/hr0.0 mm/hr 0.00 in0.0 mm
01:15 AM 38.3°F3.5°C 35.1°F1.7°C 88% 3.0 mph NW4.8 kmh NW 4.9 mph7.9 kmh 25.13 in851.0 mb 0.00 in0.0 mm 0.00 in/hr0.0 mm/hr 0.00 in0.0 mm
01:20 AM 38.3°F3.5°C 35.1°F1.7°C 88% 2.0 mph NW3.2 kmh NW 3.1 mph5.0 kmh 25.13 in851.0 mb 0.00 in0.0 mm 0.00 in/hr0.0 mm/hr 0.00 in0.0 mm
01:25 AM 38.1°F3.4°C 34.9°F1.6°C 88% 1.0 mph NW1.6 kmh NW 2.7 mph4.3 kmh 25.13 in851.0 mb 0.00 in0.0 mm 0.00 in/hr0.0 mm/hr 0.00 in0.0 mm
01:30 AM 37.9°F3.3°C 34.7°F1.5°C 88% Calm Calm 2.7 mph4.3 kmh 25.13 in851.0 mb 0.00 in0.0 mm 0.00 in/hr0.0 mm/hr 0.00 in0.0 mm
01:35 AM 37.6°F3.1°C 34.3°F1.3°C 88% Calm Calm -- 25.13 in851.0 mb 0.00 in0.0 mm 0.00 in/hr0.0 mm/hr 0.00 in0.0 mm
01:40 AM 37.6°F3.1°C 34.3°F1.3°C 88% Calm Calm -- 25.13 in851.0 mb 0.00 in0.0 mm 0.00 in/hr0.0 mm/hr 0.00 in0.0 mm
01:45 AM 37.4°F3.0°C 34.2°F1.2°C 88% Calm Calm -- 25.13 in851.0 mb 0.00 in0.0 mm 0.00 in/hr0.0 mm/hr 0.00 in0.0 mm
01:50 AM 37.0°F2.8°C 33.8°F1.0°C 88% Calm Calm -- 25.13 in851.0 mb 0.00 in0.0 mm 0.00 in/hr0.0 mm/hr 0.00 in0.0 mm
01:55 AM 36.9°F2.7°C 34.0°F1.1°C 89% Calm Calm 7.4 mph11.9 kmh 25.13 in851.0 mb 0.00 in0.0 mm 0.00 in/hr0.0 mm/hr 0.00 in0.0 mm
02:00 AM 36.9°F2.7°C 34.0°F1.1°C 89% Calm Calm 2.7 mph4.3 kmh 25.13 in851.0 mb 0.00 in0.0 mm 0.00 in/hr0.0 mm/hr 0.00 in0.0 mm
02:05 AM 36.7°F2.6°C 33.8°F1.0°C 89% Calm Calm 2.7 mph4.3 kmh 25.13 in851.0 mb 0.00 in0.0 mm 0.00 in/hr0.0 mm/hr 0.00 in0.0 mm
02:10 AM 36.5°F2.5°C 33.6°F0.9°C 89% Calm Calm -- 25.13 in851.0 mb 0.00 in0.0 mm 0.00 in/hr0.0 mm/hr 0.00 in0.0 mm
02:15 AM 36.3°F2.4°C 33.6°F0.9°C 90% Calm Calm 2.7 mph4.3 kmh 25.13 in851.0 mb 0.00 in0.0 mm 0.00 in/hr0.0 mm/hr 0.00 in0.0 mm
02:20 AM 36.7°F2.6°C 33.8°F1.0°C 89% 1.0 mph NW1.6 kmh NW 4.5 mph7.2 kmh 25.13 in851.0 mb 0.00 in0.0 mm 0.00 in/hr0.0 mm/hr 0.00 in0.0 mm
02:25 AM 36.3°F2.4°C 33.6°F0.9°C 90% 3.0 mph NW4.8 kmh NW 4.0 mph6.4 kmh 25.13 in851.0 mb 0.00 in0.0 mm 0.00 in/hr0.0 mm/hr 0.00 in0.0 mm
02:30 AM 36.1°F2.3°C 33.4°F0.8°C 90% 2.0 mph NW3.2 kmh NW 3.1 mph5.0 kmh 25.13 in851.0 mb 0.00 in0.0 mm 0.00 in/hr0.0 mm/hr 0.00 in0.0 mm
02:35 AM 36.1°F2.3°C 33.4°F0.8°C 90% Calm Calm -- 25.13 in851.0 mb 0.00 in0.0 mm 0.00 in/hr0.0 mm/hr 0.00 in0.0 mm
02:40 AM 36.3°F2.4°C 33.6°F0.9°C 90% Calm Calm 3.1 mph5.0 kmh 25.13 in851.0 mb 0.00 in0.0 mm 0.00 in/hr0.0 mm/hr 0.00 in0.0 mm
02:45 AM 36.3°F2.4°C 33.6°F0.9°C 90% Calm Calm 2.7 mph4.3 kmh 25.13 in851.0 mb 0.00 in0.0 mm 0.00 in/hr0.0 mm/hr 0.00 in0.0 mm
02:51 AM 36.3°F2.4°C 33.4°F0.8°C 89% Calm Calm -- 25.13 in851.0 mb 0.00 in0.0 mm 0.00 in/hr0.0 mm/hr 0.00 in0.0 mm
02:56 AM 36.1°F2.3°C 33.3°F0.7°C 89% Calm Calm -- 25.13 in851.0 mb 0.00 in0.0 mm 0.00 in/hr0.0 mm/hr 0.00 in0.0 mm
03:01 AM 36.0°F2.2°C 33.1°F0.6°C 89% Calm Calm 3.1 mph5.0 kmh 25.13 in851.0 mb 0.00 in0.0 mm 0.00 in/hr0.0 mm/hr 0.00 in0.0 mm
03:06 AM 36.3°F2.4°C 33.4°F0.8°C 89% Calm Calm 4.0 mph6.4 kmh 25.13 in851.0 mb 0.00 in0.0 mm 0.00 in/hr0.0 mm/hr 0.00 in0.0 mm
03:11 AM 36.5°F2.5°C 33.3°F0.7°C 88% 2.0 mph NW3.2 kmh NW 4.9 mph7.9 kmh 25.13 in851.0 mb 0.00 in0.0 mm 0.00 in/hr0.0 mm/hr 0.00 in0.0 mm
03:16 AM 36.1°F2.3°C 32.9°F0.5°C 88% 3.0 mph NW4.8 kmh NW 4.5 mph7.2 kmh 25.13 in851.0 mb 0.00 in0.0 mm 0.00 in/hr0.0 mm/hr 0.00 in0.0 mm
03:21 AM 35.4°F1.9°C 32.2°F0.1°C 88% 2.0 mph NW3.2 kmh NW 4.0 mph6.4 kmh 25.13 in851.0 mb 0.00 in0.0 mm 0.00 in/hr0.0 mm/hr 0.00 in0.0 mm
03:26 AM 35.6°F2.0°C 32.4°F0.2°C 88% 2.0 mph NW3.2 kmh NW 4.5 mph7.2 kmh 25.13 in851.0 mb 0.00 in0.0 mm 0.00 in/hr0.0 mm/hr 0.00 in0.0 mm
03:31 AM 35.8°F2.1°C 32.5°F0.3°C 88% 2.0 mph NW3.2 kmh NW 3.6 mph5.8 kmh 25.13 in851.0 mb 0.00 in0.0 mm 0.00 in/hr0.0 mm/hr 0.00 in0.0 mm
03:36 AM 35.8°F2.1°C 32.5°F0.3°C 88% 1.0 mph NW1.6 kmh NW 3.1 mph5.0 kmh 25.13 in851.0 mb 0.00 in0.0 mm 0.00 in/hr0.0 mm/hr 0.00 in0.0 mm
03:41 AM 35.8°F2.1°C 32.5°F0.3°C 88% Calm Calm 2.7 mph4.3 kmh 25.13 in851.0 mb 0.00 in0.0 mm 0.00 in/hr0.0 mm/hr 0.00 in0.0 mm
03:46 AM 35.8°F2.1°C 32.5°F0.3°C 88% Calm Calm -- 25.13 in851.0 mb 0.00 in0.0 mm 0.00 in/hr0.0 mm/hr 0.00 in0.0 mm
03:51 AM 35.4°F1.9°C 32.2°F0.1°C 88% Calm Calm 2.7 mph4.3 kmh 25.13 in851.0 mb 0.00 in0.0 mm 0.00 in/hr0.0 mm/hr 0.00 in0.0 mm
03:56 AM 35.4°F1.9°C 32.2°F0.1°C 88% Calm Calm 3.6 mph5.8 kmh 25.13 in851.0 mb 0.00 in0.0 mm 0.00 in/hr0.0 mm/hr 0.00 in0.0 mm
04:01 AM 34.5°F1.4°C 31.3°F-0.4°C 88% 1.0 mph NW1.6 kmh NW 4.5 mph7.2 kmh 25.13 in851.0 mb 0.00 in0.0 mm 0.00 in/hr0.0 mm/hr 0.00 in0.0 mm
04:06 AM 34.3°F1.3°C 31.1°F-0.5°C 88% 1.0 mph NW1.6 kmh NW 3.1 mph5.0 kmh 25.13 in851.0 mb 0.00 in0.0 mm 0.00 in/hr0.0 mm/hr 0.00 in0.0 mm
04:11 AM 34.9°F1.6°C 32.0°F0.0°C 89% Calm Calm 3.1 mph5.0 kmh 25.13 in851.0 mb 0.00 in0.0 mm 0.00 in/hr0.0 mm/hr 0.00 in0.0 mm
04:16 AM 34.7°F1.5°C 31.8°F-0.1°C 89% Calm Calm -- 25.13 in851.0 mb 0.00 in0.0 mm 0.00 in/hr0.0 mm/hr 0.00 in0.0 mm
04:21 AM 34.9°F1.6°C 32.0°F0.0°C 89% Calm Calm 3.6 mph5.8 kmh 25.13 in851.0 mb 0.00 in0.0 mm 0.00 in/hr0.0 mm/hr 0.00 in0.0 mm
04:26 AM 35.1°F1.7°C 32.2°F0.1°C 89% 1.0 mph NW1.6 kmh NW 12.5 mph20.1 kmh 25.13 in851.0 mb 0.00 in0.0 mm 0.00 in/hr0.0 mm/hr 0.00 in0.0 mm
04:31 AM 34.5°F1.4°C 31.8°F-0.1°C 90% Calm Calm 3.1 mph5.0 kmh 25.13 in851.0 mb 0.00 in0.0 mm 0.00 in/hr0.0 mm/hr 0.00 in0.0 mm
04:36 AM 34.3°F1.3°C 31.5°F-0.3°C 89% Calm Calm 2.7 mph4.3 kmh 25.13 in851.0 mb 0.00 in0.0 mm 0.00 in/hr0.0 mm/hr 0.00 in0.0 mm
04:41 AM 34.5°F1.4°C 31.6°F-0.2°C 89% Calm Calm 3.1 mph5.0 kmh 25.16 in852.0 mb 0.00 in0.0 mm 0.00 in/hr0.0 mm/hr 0.00 in0.0 mm
04:46 AM 34.3°F1.3°C 31.6°F-0.2°C 90% Calm Calm 4.0 mph6.4 kmh 25.16 in852.0 mb 0.00 in0.0 mm 0.00 in/hr0.0 mm/hr 0.00 in0.0 mm
04:52 AM 34.0°F1.1°C 31.1°F-0.5°C 89% Calm Calm -- 25.16 in852.0 mb 0.00 in0.0 mm 0.00 in/hr0.0 mm/hr 0.00 in0.0 mm
04:57 AM 34.0°F1.1°C 31.1°F-0.5°C 89% Calm Calm 16.8 mph27.0 kmh 25.16 in852.0 mb 0.00 in0.0 mm 0.00 in/hr0.0 mm/hr 0.00 in0.0 mm
05:02 AM 33.8°F1.0°C 30.9°F-0.6°C 89% Calm Calm -- 25.16 in852.0 mb 0.00 in0.0 mm 0.00 in/hr0.0 mm/hr 0.00 in0.0 mm
05:07 AM 34.0°F1.1°C 31.1°F-0.5°C 89% Calm Calm 2.7 mph4.3 kmh 25.16 in852.0 mb 0.00 in0.0 mm 0.00 in/hr0.0 mm/hr 0.00 in0.0 mm
05:12 AM 33.8°F1.0°C 30.9°F-0.6°C 89% Calm Calm 30.0 mph48.3 kmh 25.16 in852.0 mb 0.00 in0.0 mm 0.00 in/hr0.0 mm/hr 0.00 in0.0 mm
05:17 AM 34.0°F1.1°C 31.1°F-0.5°C 89% Calm Calm -- 25.16 in852.0 mb 0.00 in0.0 mm 0.00 in/hr0.0 mm/hr 0.00 in0.0 mm
05:22 AM 34.2°F1.2°C 31.3°F-0.4°C 89% Calm Calm -- 25.16 in852.0 mb 0.00 in0.0 mm 0.00 in/hr0.0 mm/hr 0.00 in0.0 mm
05:27 AM 34.2°F1.2°C 30.9°F-0.6°C 88% Calm Calm 3.1 mph5.0 kmh 25.16 in852.0 mb 0.00 in0.0 mm 0.00 in/hr0.0 mm/hr 0.00 in0.0 mm
05:32 AM 34.5°F1.4°C 31.3°F-0.4°C 88% 1.0 mph NW1.6 kmh NW 16.8 mph27.0 kmh 25.16 in852.0 mb 0.00 in0.0 mm 0.00 in/hr0.0 mm/hr 0.00 in0.0 mm
05:37 AM 34.5°F1.4°C 31.3°F-0.4°C 88% 3.0 mph NW4.8 kmh NW 61.1 mph98.3 kmh 25.16 in852.0 mb 0.00 in0.0 mm 0.00 in/hr0.0 mm/hr 0.00 in0.0 mm
05:42 AM 35.2°F1.8°C 31.8°F-0.1°C 87% 4.0 mph NW6.4 kmh NW 5.4 mph8.7 kmh 25.16 in852.0 mb 0.00 in0.0 mm 0.00 in/hr0.0 mm/hr 0.00 in0.0 mm
05:47 AM 35.4°F1.9°C 32.0°F0.0°C 87% 3.0 mph NW4.8 kmh NW 4.9 mph7.9 kmh 25.16 in852.0 mb 0.00 in0.0 mm 0.00 in/hr0.0 mm/hr 0.00 in0.0 mm
05:52 AM 34.5°F1.4°C 30.6°F-0.8°C 85% 3.0 mph NW4.8 kmh NW 4.9 mph7.9 kmh 25.16 in852.0 mb 0.00 in0.0 mm 0.00 in/hr0.0 mm/hr 0.00 in0.0 mm
05:57 AM 33.6°F0.9°C 29.7°F-1.3°C 85% 4.0 mph NW6.4 kmh NW 4.9 mph7.9 kmh 25.16 in852.0 mb 0.00 in0.0 mm 0.00 in/hr0.0 mm/hr 0.00 in0.0 mm
06:02 AM 33.6°F0.9°C 29.7°F-1.3°C 85% 3.0 mph NW4.8 kmh NW 4.9 mph7.9 kmh 25.16 in852.0 mb 0.00 in0.0 mm 0.00 in/hr0.0 mm/hr 0.00 in0.0 mm
06:07 AM 33.6°F0.9°C 29.8°F-1.2°C 86% 3.0 mph NW4.8 kmh NW 4.9 mph7.9 kmh 25.16 in852.0 mb 0.00 in0.0 mm 0.00 in/hr0.0 mm/hr 0.00 in0.0 mm
06:12 AM 33.8°F1.0°C 30.0°F-1.1°C 86% 3.0 mph NW4.8 kmh NW 4.0 mph6.4 kmh 25.16 in852.0 mb 0.00 in0.0 mm 0.00 in/hr0.0 mm/hr 0.00 in0.0 mm
06:17 AM 34.3°F1.3°C 30.9°F-0.6°C 87% 3.0 mph NW4.8 kmh NW 4.5 mph7.2 kmh 25.16 in852.0 mb 0.00 in0.0 mm 0.00 in/hr0.0 mm/hr 0.00 in0.0 mm
06:22 AM 34.3°F1.3°C 30.9°F-0.6°C 87% 4.0 mph NW6.4 kmh NW 5.4 mph8.7 kmh 25.16 in852.0 mb 0.00 in0.0 mm 0.00 in/hr0.0 mm/hr 0.00 in0.0 mm
06:28 AM 34.9°F1.6°C 31.5°F-0.3°C 87% 4.0 mph N6.4 kmh N 5.4 mph8.7 kmh 25.19 in853.0 mb 0.00 in0.0 mm 0.00 in/hr0.0 mm/hr 0.00 in0.0 mm
06:33 AM 35.8°F2.1°C 32.4°F0.2°C 87% 4.0 mph NE6.4 kmh NE 4.9 mph7.9 kmh 25.19 in853.0 mb 0.00 in0.0 mm 0.00 in/hr0.0 mm/hr 0.00 in0.0 mm
06:38 AM 36.5°F2.5°C 33.1°F0.6°C 87% 4.0 mph ENE6.4 kmh ENE 6.7 mph10.8 kmh 25.19 in853.0 mb 0.00 in0.0 mm 0.00 in/hr0.0 mm/hr 0.00 in0.0 mm
06:43 AM 36.3°F2.4°C 32.9°F0.5°C 87% 4.0 mph E6.4 kmh E 6.3 mph10.1 kmh 25.19 in853.0 mb 0.00 in0.0 mm 0.00 in/hr0.0 mm/hr 0.00 in0.0 mm
06:48 AM 37.2°F2.9°C 33.4°F0.8°C 86% 4.0 mph E6.4 kmh E 6.3 mph10.1 kmh 25.19 in853.0 mb 0.00 in0.0 mm 0.00 in/hr0.0 mm/hr 0.00 in0.0 mm
06:53 AM 38.1°F3.4°C 34.3°F1.3°C 86% 3.0 mph E4.8 kmh E 4.5 mph7.2 kmh 25.19 in853.0 mb 0.00 in0.0 mm 0.00 in/hr0.0 mm/hr 0.00 in0.0 mm
06:59 AM 38.8°F3.8°C 34.3°F1.3°C 84% 2.0 mph E3.2 kmh E 4.5 mph7.2 kmh 25.19 in853.0 mb 0.00 in0.0 mm 0.00 in/hr0.0 mm/hr 0.00 in0.0 mm
07:04 AM 39.2°F4.0°C 34.5°F1.4°C 83% 1.0 mph ESE1.6 kmh ESE 4.0 mph6.4 kmh 25.19 in853.0 mb 0.00 in0.0 mm 0.00 in/hr0.0 mm/hr 0.00 in0.0 mm
07:09 AM 38.5°F3.6°C 32.9°F0.5°C 80% 2.0 mph E3.2 kmh E 5.8 mph9.3 kmh 25.19 in853.0 mb 0.00 in0.0 mm 0.00 in/hr0.0 mm/hr 0.00 in0.0 mm
07:14 AM 39.0°F3.9°C 33.6°F0.9°C 81% 3.0 mph E4.8 kmh E 5.8 mph9.3 kmh 25.19 in853.0 mb 0.00 in0.0 mm 0.00 in/hr0.0 mm/hr 0.00 in0.0 mm
07:19 AM 39.0°F3.9°C 33.6°F0.9°C 81% 3.0 mph ENE4.8 kmh ENE 5.4 mph8.7 kmh 25.19 in853.0 mb 0.00 in0.0 mm 0.00 in/hr0.0 mm/hr 0.00 in0.0 mm
07:24 AM 39.2°F4.0°C 33.8°F1.0°C 81% 3.0 mph ENE4.8 kmh ENE 5.8 mph9.3 kmh 25.19 in853.0 mb 0.00 in0.0 mm 0.00 in/hr0.0 mm/hr 0.00 in0.0 mm
07:29 AM 39.2°F4.0°C 33.6°F0.9°C 80% 4.0 mph E6.4 kmh E 6.3 mph10.1 kmh 25.19 in853.0 mb 0.00 in0.0 mm 0.00 in/hr0.0 mm/hr 0.00 in0.0 mm
07:34 AM 39.2°F4.0°C 33.6°F0.9°C 80% 4.0 mph E6.4 kmh E 6.3 mph10.1 kmh 25.19 in853.0 mb 0.00 in0.0 mm 0.00 in/hr0.0 mm/hr 0.00 in0.0 mm
07:39 AM 39.7°F4.3°C 33.4°F0.8°C 78% 5.0 mph E8.0 kmh E 6.9 mph11.1 kmh 25.19 in853.0 mb 0.00 in0.0 mm 0.00 in/hr0.0 mm/hr 0.00 in0.0 mm
07:44 AM 39.9°F4.4°C 33.6°F0.9°C 78% 5.0 mph ESE8.0 kmh ESE 7.4 mph11.9 kmh 25.19 in853.0 mb 0.00 in0.0 mm 0.00 in/hr0.0 mm/hr 0.00 in0.0 mm
07:49 AM 40.5°F4.7°C 34.2°F1.2°C 78% 5.0 mph ESE8.0 kmh ESE 6.9 mph11.1 kmh 25.19 in853.0 mb 0.00 in0.0 mm 0.00 in/hr0.0 mm/hr 0.00 in0.0 mm
07:54 AM 40.8°F4.9°C 33.8°F1.0°C 76% 5.0 mph E8.0 kmh E 7.4 mph11.9 kmh 25.19 in853.0 mb 0.00 in0.0 mm 0.00 in/hr0.0 mm/hr 0.00 in0.0 mm
07:59 AM 41.2°F5.1°C 33.8°F1.0°C 75% 5.0 mph ESE8.0 kmh ESE 6.9 mph11.1 kmh 25.19 in853.0 mb 0.00 in0.0 mm 0.00 in/hr0.0 mm/hr 0.00 in0.0 mm
08:05 AM 41.4°F5.2°C 34.0°F1.1°C 75% 5.0 mph ESE8.0 kmh ESE 6.9 mph11.1 kmh 25.19 in853.0 mb 0.00 in0.0 mm 0.00 in/hr0.0 mm/hr 0.00 in0.0 mm
08:10 AM 42.1°F5.6°C 34.0°F1.1°C 73% 5.0 mph ESE8.0 kmh ESE 6.3 mph10.1 kmh 25.19 in853.0 mb 0.00 in0.0 mm 0.00 in/hr0.0 mm/hr 0.00 in0.0 mm
08:15 AM 43.3°F6.3°C 35.2°F1.8°C 73% 4.0 mph E6.4 kmh E 5.4 mph8.7 kmh 25.19 in853.0 mb 0.00 in0.0 mm 0.00 in/hr0.0 mm/hr 0.00 in0.0 mm
08:20 AM 43.5°F6.4°C 34.7°F1.5°C 71% 4.0 mph E6.4 kmh E 7.4 mph11.9 kmh 25.19 in853.0 mb 0.00 in0.0 mm 0.00 in/hr0.0 mm/hr 0.00 in0.0 mm
08:25 AM 44.2°F6.8°C 34.7°F1.5°C 69% 5.0 mph ESE8.0 kmh ESE 8.7 mph14.0 kmh 25.19 in853.0 mb 0.00 in0.0 mm 0.00 in/hr0.0 mm/hr 0.00 in0.0 mm
08:30 AM 45.0°F7.2°C 35.4°F1.9°C 69% 4.0 mph E6.4 kmh E 6.7 mph10.8 kmh 25.22 in854.0 mb 0.00 in0.0 mm 0.00 in/hr0.0 mm/hr 0.00 in0.0 mm
08:35 AM 45.0°F7.2°C 35.8°F2.1°C 70% 4.0 mph ENE6.4 kmh ENE 6.9 mph11.1 kmh 25.22 in854.0 mb 0.00 in0.0 mm 0.00 in/hr0.0 mm/hr 0.00 in0.0 mm
08:40 AM 45.7°F7.6°C 35.8°F2.1°C 68% 4.0 mph NE6.4 kmh NE 6.3 mph10.1 kmh 25.22 in854.0 mb 0.00 in0.0 mm 0.00 in/hr0.0 mm/hr 0.00 in0.0 mm
08:45 AM 46.4°F8.0°C 35.2°F1.8°C 65% 3.0 mph ENE4.8 kmh ENE 5.4 mph8.7 kmh 25.22 in854.0 mb 0.00 in0.0 mm 0.00 in/hr0.0 mm/hr 0.00 in0.0 mm
08:50 AM 46.9°F8.3°C 34.5°F1.4°C 62% 3.0 mph E4.8 kmh E 5.8 mph9.3 kmh 25.22 in854.0 mb 0.00 in0.0 mm 0.00 in/hr0.0 mm/hr 0.00 in0.0 mm
08:55 AM 46.4°F8.0°C 32.0°F0.0°C 57% 3.0 mph E4.8 kmh E 6.3 mph10.1 kmh 25.22 in854.0 mb 0.00 in0.0 mm 0.00 in/hr0.0 mm/hr 0.00 in0.0 mm
09:00 AM 47.3°F8.5°C 33.6°F0.9°C 59% 3.0 mph ENE4.8 kmh ENE 5.4 mph8.7 kmh 25.22 in854.0 mb 0.00 in0.0 mm 0.00 in/hr0.0 mm/hr 0.00 in0.0 mm
09:05 AM 48.0°F8.9°C 32.2°F0.1°C 54% 3.0 mph ENE4.8 kmh ENE 4.5 mph7.2 kmh 25.22 in854.0 mb 0.00 in0.0 mm 0.00 in/hr0.0 mm/hr 0.00 in0.0 mm
09:10 AM 47.8°F8.8°C 30.6°F-0.8°C 51% 3.0 mph ENE4.8 kmh ENE 6.7 mph10.8 kmh 25.22 in854.0 mb 0.00 in0.0 mm 0.00 in/hr0.0 mm/hr 0.00 in0.0 mm
09:15 AM 49.3°F9.6°C 32.0°F0.0°C 51% 3.0 mph NE4.8 kmh NE 4.9 mph7.9 kmh 25.22 in854.0 mb 0.00 in0.0 mm 0.00 in/hr0.0 mm/hr 0.00 in0.0 mm
09:20 AM 48.0°F8.9°C 29.3°F-1.5°C 48% 3.0 mph NE4.8 kmh NE 6.7 mph10.8 kmh 25.22 in854.0 mb 0.00 in0.0 mm 0.00 in/hr0.0 mm/hr 0.00 in0.0 mm
09:25 AM 47.7°F8.7°C 28.4°F-2.0°C 47% 2.0 mph NE3.2 kmh NE 4.9 mph7.9 kmh 25.22 in854.0 mb 0.00 in0.0 mm 0.00 in/hr0.0 mm/hr 0.00 in0.0 mm
09:30 AM 47.7°F8.7°C 28.9°F-1.7°C 48% 1.0 mph NE1.6 kmh NE 4.5 mph7.2 kmh 25.22 in854.0 mb 0.00 in0.0 mm 0.00 in/hr0.0 mm/hr 0.00 in0.0 mm
09:35 AM 47.5°F8.6°C 28.8°F-1.8°C 48% 1.0 mph NE1.6 kmh NE 5.4 mph8.7 kmh 25.22 in854.0 mb 0.00 in0.0 mm 0.00 in/hr0.0 mm/hr 0.00 in0.0 mm
09:40 AM 48.0°F8.9°C 29.3°F-1.5°C 48% 2.0 mph N3.2 kmh N 4.0 mph6.4 kmh 25.22 in854.0 mb 0.00 in0.0 mm 0.00 in/hr0.0 mm/hr 0.00 in0.0 mm
09:46 AM 48.0°F8.9°C 29.3°F-1.5°C 48% 2.0 mph NNW3.2 kmh NNW 4.9 mph7.9 kmh 25.22 in854.0 mb 0.00 in0.0 mm 0.00 in/hr0.0 mm/hr 0.00 in0.0 mm
09:51 AM 49.6°F9.8°C 29.1°F-1.6°C 45% 2.0 mph NNE3.2 kmh NNE 4.0 mph6.4 kmh 25.22 in854.0 mb 0.00 in0.0 mm 0.00 in/hr0.0 mm/hr 0.00 in0.0 mm
09:56 AM 49.8°F9.9°C 29.8°F-1.2°C 46% 2.0 mph NE3.2 kmh NE 4.5 mph7.2 kmh 25.22 in854.0 mb 0.00 in0.0 mm 0.00 in/hr0.0 mm/hr 0.00 in0.0 mm
10:01 AM 49.5°F9.7°C 29.5°F-1.4°C 46% 2.0 mph NE3.2 kmh NE 5.8 mph9.3 kmh 25.22 in854.0 mb 0.00 in0.0 mm 0.00 in/hr0.0 mm/hr 0.00 in0.0 mm
10:06 AM 50.2°F10.1°C 29.7°F-1.3°C 45% 1.0 mph E1.6 kmh E 4.0 mph6.4 kmh 25.22 in854.0 mb 0.00 in0.0 mm 0.00 in/hr0.0 mm/hr 0.00 in0.0 mm
10:11 AM 49.8°F9.9°C 28.8°F-1.8°C 44% 1.0 mph SE1.6 kmh SE 5.4 mph8.7 kmh 25.22 in854.0 mb 0.00 in0.0 mm 0.00 in/hr0.0 mm/hr 0.00 in0.0 mm
10:16 AM 50.7°F10.4°C 31.3°F-0.4°C 47% 1.0 mph ESE1.6 kmh ESE 7.4 mph11.9 kmh 25.22 in854.0 mb 0.00 in0.0 mm 0.00 in/hr0.0 mm/hr 0.00 in0.0 mm
10:21 AM 51.1°F10.6°C 30.6°F-0.8°C 45% 1.0 mph ENE1.6 kmh ENE 6.9 mph11.1 kmh 25.22 in854.0 mb 0.00 in0.0 mm 0.00 in/hr0.0 mm/hr 0.00 in0.0 mm
10:26 AM 51.1°F10.6°C 27.7°F-2.4°C 40% 3.0 mph ENE4.8 kmh ENE 7.8 mph12.6 kmh 25.22 in854.0 mb 0.00 in0.0 mm 0.00 in/hr0.0 mm/hr 0.00 in0.0 mm
10:31 AM 51.1°F10.6°C 26.4°F-3.1°C 38% 5.0 mph SSE8.0 kmh SSE 6.9 mph11.1 kmh 25.22 in854.0 mb 0.00 in0.0 mm 0.00 in/hr0.0 mm/hr 0.00 in0.0 mm
10:36 AM 51.3°F10.7°C 26.6°F-3.0°C 38% 4.0 mph SSW6.4 kmh SSW 6.3 mph10.1 kmh 25.22 in854.0 mb 0.00 in0.0 mm 0.00 in/hr0.0 mm/hr 0.00 in0.0 mm
10:41 AM 50.9°F10.5°C 26.2°F-3.2°C 38% 4.0 mph S6.4 kmh S 7.8 mph12.6 kmh 25.22 in854.0 mb 0.00 in0.0 mm 0.00 in/hr0.0 mm/hr 0.00 in0.0 mm
10:46 AM 52.7°F11.5°C 27.9°F-2.3°C 38% 5.0 mph SE8.0 kmh SE 9.2 mph14.8 kmh 25.22 in854.0 mb 0.00 in0.0 mm 0.00 in/hr0.0 mm/hr 0.00 in0.0 mm
10:51 AM 52.0°F11.1°C 26.6°F-3.0°C 37% 6.0 mph SE9.7 kmh SE 15.4 mph24.8 kmh 25.22 in854.0 mb 0.00 in0.0 mm 0.00 in/hr0.0 mm/hr 0.00 in0.0 mm
10:56 AM 51.8°F11.0°C 26.4°F-3.1°C 37% 7.0 mph NE11.3 kmh NE 14.8 mph23.8 kmh 25.22 in854.0 mb 0.00 in0.0 mm 0.00 in/hr0.0 mm/hr 0.00 in0.0 mm
11:02 AM 52.2°F11.2°C 26.1°F-3.3°C 36% 8.0 mph NNE12.9 kmh NNE 11.0 mph17.7 kmh 25.22 in854.0 mb 0.00 in0.0 mm 0.00 in/hr0.0 mm/hr 0.00 in0.0 mm
11:07 AM 51.6°F10.9°C 26.2°F-3.2°C 37% 6.0 mph NW9.7 kmh NW 10.1 mph16.3 kmh 25.22 in854.0 mb 0.00 in0.0 mm 0.00 in/hr0.0 mm/hr 0.00 in0.0 mm
11:12 AM 51.4°F10.8°C 25.3°F-3.7°C 36% 5.0 mph WSW8.0 kmh WSW 5.8 mph9.3 kmh 25.22 in854.0 mb 0.00 in0.0 mm 0.00 in/hr0.0 mm/hr 0.00 in0.0 mm
11:17 AM 52.7°F11.5°C 26.4°F-3.1°C 36% 4.0 mph W6.4 kmh W 8.3 mph13.4 kmh 25.22 in854.0 mb 0.00 in0.0 mm 0.00 in/hr0.0 mm/hr 0.00 in0.0 mm
11:22 AM 52.7°F11.5°C 26.4°F-3.1°C 36% 7.0 mph NW11.3 kmh NW 14.3 mph23.0 kmh 25.22 in854.0 mb 0.00 in0.0 mm 0.00 in/hr0.0 mm/hr 0.00 in0.0 mm
11:27 AM 53.2°F11.8°C 26.2°F-3.2°C 35% 8.0 mph NNE12.9 kmh NNE 10.5 mph16.9 kmh 25.22 in854.0 mb 0.00 in0.0 mm 0.00 in/hr0.0 mm/hr 0.00 in0.0 mm
11:32 AM 52.7°F11.5°C 24.4°F-4.2°C 33% 6.0 mph NE9.7 kmh NE 13.0 mph20.9 kmh 25.22 in854.0 mb 0.00 in0.0 mm 0.00 in/hr0.0 mm/hr 0.00 in0.0 mm
11:37 AM 53.1°F11.7°C 24.8°F-4.0°C 33% 6.0 mph NE9.7 kmh NE 12.1 mph19.5 kmh 25.22 in854.0 mb 0.00 in0.0 mm 0.00 in/hr0.0 mm/hr 0.00 in0.0 mm
11:42 AM 54.3°F12.4°C 25.2°F-3.8°C 32% 5.0 mph NNE8.0 kmh NNE 7.4 mph11.9 kmh 25.19 in853.0 mb 0.00 in0.0 mm 0.00 in/hr0.0 mm/hr 0.00 in0.0 mm
11:48 AM 54.9°F12.7°C 22.5°F-5.3°C 28% 4.0 mph NW6.4 kmh NW 10.1 mph16.3 kmh 25.19 in853.0 mb 0.00 in0.0 mm 0.00 in/hr0.0 mm/hr 0.00 in0.0 mm
11:53 AM 53.8°F12.1°C 21.4°F-5.9°C 28% 6.0 mph WSW9.7 kmh WSW 8.3 mph13.4 kmh 25.19 in853.0 mb 0.00 in0.0 mm 0.00 in/hr0.0 mm/hr 0.00 in0.0 mm
11:58 AM 53.2°F11.8°C 21.0°F-6.1°C 28% 5.0 mph W8.0 kmh W 9.2 mph14.8 kmh 25.19 in853.0 mb 0.00 in0.0 mm 0.00 in/hr0.0 mm/hr 0.00 in0.0 mm
12:03 PM 53.2°F11.8°C 20.1°F-6.6°C 27% 3.0 mph WSW4.8 kmh WSW 5.4 mph8.7 kmh 25.19 in853.0 mb 0.00 in0.0 mm 0.00 in/hr0.0 mm/hr 0.00 in0.0 mm
12:08 PM 54.1°F12.3°C 21.7°F-5.7°C 28% 2.0 mph SSW3.2 kmh SSW 4.9 mph7.9 kmh 25.19 in853.0 mb 0.00 in0.0 mm 0.00 in/hr0.0 mm/hr 0.00 in0.0 mm
12:13 PM 55.0°F12.8°C 20.8°F-6.2°C 26% 2.0 mph S3.2 kmh S 5.4 mph8.7 kmh 25.19 in853.0 mb 0.00 in0.0 mm 0.00 in/hr0.0 mm/hr 0.00 in0.0 mm
12:18 PM 55.6°F13.1°C 21.2°F-6.0°C 26% 2.0 mph ESE3.2 kmh ESE 6.9 mph11.1 kmh 25.19 in853.0 mb 0.00 in0.0 mm 0.00 in/hr0.0 mm/hr 0.00 in0.0 mm
12:23 PM 55.8°F13.2°C 21.4°F-5.9°C 26% 3.0 mph N4.8 kmh N 6.7 mph10.8 kmh 25.19 in853.0 mb 0.00 in0.0 mm 0.00 in/hr0.0 mm/hr 0.00 in0.0 mm
12:28 PM 55.8°F13.2°C 21.4°F-5.9°C 26% 4.0 mph SW6.4 kmh SW 8.3 mph13.4 kmh 25.19 in853.0 mb 0.00 in0.0 mm 0.00 in/hr0.0 mm/hr 0.00 in0.0 mm
12:33 PM 57.2°F14.0°C 22.6°F-5.2°C 26% 6.0 mph WSW9.7 kmh WSW 10.1 mph16.3 kmh 25.19 in853.0 mb 0.00 in0.0 mm 0.00 in/hr0.0 mm/hr 0.00 in0.0 mm
12:38 PM 55.2°F12.9°C 19.9°F-6.7°C 25% 6.0 mph NW9.7 kmh NW 11.0 mph17.7 kmh 25.19 in853.0 mb 0.00 in0.0 mm 0.00 in/hr0.0 mm/hr 0.00 in0.0 mm
12:43 PM 54.5°F12.5°C 20.3°F-6.5°C 26% 7.0 mph NNW11.3 kmh NNW 13.0 mph20.9 kmh 25.19 in853.0 mb 0.00 in0.0 mm 0.00 in/hr0.0 mm/hr 0.00 in0.0 mm
12:48 PM 55.4°F13.0°C 20.1°F-6.6°C 25% 6.0 mph NE9.7 kmh NE 12.5 mph20.1 kmh 25.19 in853.0 mb 0.00 in0.0 mm 0.00 in/hr0.0 mm/hr 0.00 in0.0 mm
12:53 PM 55.2°F12.9°C 19.9°F-6.7°C 25% 5.0 mph NE8.0 kmh NE 11.2 mph18.0 kmh 25.19 in853.0 mb 0.00 in0.0 mm 0.00 in/hr0.0 mm/hr 0.00 in0.0 mm
12:58 PM 56.1°F13.4°C 20.8°F-6.2°C 25% 5.0 mph NE8.0 kmh NE 8.7 mph14.0 kmh 25.19 in853.0 mb 0.00 in0.0 mm 0.00 in/hr0.0 mm/hr 0.00 in0.0 mm
01:03 PM 56.3°F13.5°C 18.0°F-7.8°C 22% 5.0 mph E8.0 kmh E 8.3 mph13.4 kmh 25.19 in853.0 mb 0.00 in0.0 mm 0.00 in/hr0.0 mm/hr 0.00 in0.0 mm
01:08 PM 57.0°F13.9°C 18.5°F-7.5°C 22% 4.0 mph ENE6.4 kmh ENE 8.7 mph14.0 kmh 25.19 in853.0 mb 0.00 in0.0 mm 0.00 in/hr0.0 mm/hr 0.00 in0.0 mm
01:13 PM 57.0°F13.9°C 15.3°F-9.3°C 19% 6.0 mph NNE9.7 kmh NNE 15.2 mph24.5 kmh 25.19 in853.0 mb 0.00 in0.0 mm 0.00 in/hr0.0 mm/hr 0.00 in0.0 mm
01:18 PM 57.2°F14.0°C 15.3°F-9.3°C 19% 6.0 mph N9.7 kmh N 7.8 mph12.6 kmh 25.19 in853.0 mb 0.00 in0.0 mm 0.00 in/hr0.0 mm/hr 0.00 in0.0 mm
01:23 PM 57.2°F14.0°C 12.7°F-10.7°C 17% 4.0 mph NNE6.4 kmh NNE 8.7 mph14.0 kmh 25.19 in853.0 mb 0.00 in0.0 mm 0.00 in/hr0.0 mm/hr 0.00 in0.0 mm
01:28 PM 58.8°F14.9°C 14.2°F-9.9°C 17% 5.0 mph ENE8.0 kmh ENE 10.1 mph16.3 kmh 25.19 in853.0 mb 0.00 in0.0 mm 0.00 in/hr0.0 mm/hr 0.00 in0.0 mm
01:33 PM 57.9°F14.4°C 9.0°F-12.8°C 14% 7.0 mph WNW11.3 kmh WNW 15.4 mph24.8 kmh 25.19 in853.0 mb 0.00 in0.0 mm 0.00 in/hr0.0 mm/hr 0.00 in0.0 mm
01:38 PM 58.1°F14.5°C 5.7°F-14.6°C 12% 6.0 mph NW9.7 kmh NW 10.5 mph16.9 kmh 25.19 in853.0 mb 0.00 in0.0 mm 0.00 in/hr0.0 mm/hr 0.00 in0.0 mm
01:43 PM 57.2°F14.0°C 5.0°F-15.0°C 12% 4.0 mph NW6.4 kmh NW 8.3 mph13.4 kmh 25.16 in852.0 mb 0.00 in0.0 mm 0.00 in/hr0.0 mm/hr 0.00 in0.0 mm
01:48 PM 56.7°F13.7°C 4.6°F-15.2°C 12% 5.0 mph N8.0 kmh N 8.3 mph13.4 kmh 25.16 in852.0 mb 0.00 in0.0 mm 0.00 in/hr0.0 mm/hr 0.00 in0.0 mm
01:53 PM 57.0°F13.9°C 5.0°F-15.0°C 12% 5.0 mph NNE8.0 kmh NNE 9.2 mph14.8 kmh 25.16 in852.0 mb 0.00 in0.0 mm 0.00 in/hr0.0 mm/hr 0.00 in0.0 mm
01:58 PM 58.8°F14.9°C 6.3°F-14.3°C 12% 5.0 mph WSW8.0 kmh WSW 10.5 mph16.9 kmh 25.16 in852.0 mb 0.00 in0.0 mm 0.00 in/hr0.0 mm/hr 0.00 in0.0 mm
02:08 PM 60.3°F15.7°C 5.5°F-14.7°C 11% 6.0 mph NW9.7 kmh NW 12.5 mph20.1 kmh 25.16 in852.0 mb 0.00 in0.0 mm 0.00 in/hr0.0 mm/hr 0.00 in0.0 mm
02:13 PM 58.8°F14.9°C -5537.2°C - 8.0 mph NW12.9 kmh NW 14.3 mph23.0 kmh 25.16 in852.0 mb 0.00 in0.0 mm 0.00 in/hr0.0 mm/hr 0.00 in0.0 mm
02:18 PM 58.6°F14.8°C -5537.2°C - 9.0 mph N14.5 kmh N 13.4 mph21.6 kmh 25.16 in852.0 mb 0.00 in0.0 mm 0.00 in/hr0.0 mm/hr 0.00 in0.0 mm
02:23 PM 59.4°F15.2°C -5537.2°C - 7.0 mph N11.3 kmh N 9.2 mph14.8 kmh 25.16 in852.0 mb 0.00 in0.0 mm 0.00 in/hr0.0 mm/hr 0.00 in0.0 mm
02:28 PM 61.9°F16.6°C -5537.2°C - 7.0 mph NNW11.3 kmh NNW 14.8 mph23.8 kmh 25.16 in852.0 mb 0.00 in0.0 mm 0.00 in/hr0.0 mm/hr 0.00 in0.0 mm
02:33 PM 59.2°F15.1°C -5537.2°C - 10.0 mph WNW16.1 kmh WNW 15.2 mph24.5 kmh 25.16 in852.0 mb 0.00 in0.0 mm 0.00 in/hr0.0 mm/hr 0.00 in0.0 mm
02:38 PM 59.4°F15.2°C -5537.2°C - 8.0 mph W12.9 kmh W 11.2 mph18.0 kmh 25.16 in852.0 mb 0.00 in0.0 mm 0.00 in/hr0.0 mm/hr 0.00 in0.0 mm
02:43 PM 60.3°F15.7°C -5537.2°C - 6.0 mph SW9.7 kmh SW 8.3 mph13.4 kmh 25.16 in852.0 mb 0.00 in0.0 mm 0.00 in/hr0.0 mm/hr 0.00 in0.0 mm
02:48 PM 60.4°F15.8°C -5537.2°C - 7.0 mph WSW11.3 kmh WSW 18.6 mph29.9 kmh 25.16 in852.0 mb 0.00 in0.0 mm 0.00 in/hr0.0 mm/hr 0.00 in0.0 mm
02:53 PM 60.1°F15.6°C -5537.2°C - 9.0 mph NW14.5 kmh NW 13.4 mph21.6 kmh 25.16 in852.0 mb 0.00 in0.0 mm 0.00 in/hr0.0 mm/hr 0.00 in0.0 mm
02:59 PM 60.8°F16.0°C -5537.2°C - 10.0 mph NW16.1 kmh NW 18.6 mph29.9 kmh 25.16 in852.0 mb 0.00 in0.0 mm 0.00 in/hr0.0 mm/hr 0.00 in0.0 mm
03:04 PM 60.1°F15.6°C -5537.2°C - 11.0 mph NW17.7 kmh NW 19.5 mph31.4 kmh 25.16 in852.0 mb 0.00 in0.0 mm 0.00 in/hr0.0 mm/hr 0.00 in0.0 mm
03:09 PM 60.3°F15.7°C -5537.2°C - 8.0 mph NNW12.9 kmh NNW 9.2 mph14.8 kmh 25.16 in852.0 mb 0.00 in0.0 mm 0.00 in/hr0.0 mm/hr 0.00 in0.0 mm
03:14 PM 60.3°F15.7°C -5537.2°C - 8.0 mph N12.9 kmh N 19.0 mph30.6 kmh 25.16 in852.0 mb 0.00 in0.0 mm 0.00 in/hr0.0 mm/hr 0.00 in0.0 mm
03:19 PM 60.1°F15.6°C -5537.2°C - 9.0 mph NW14.5 kmh NW 15.2 mph24.5 kmh 25.16 in852.0 mb 0.00 in0.0 mm 0.00 in/hr0.0 mm/hr 0.00 in0.0 mm
03:24 PM 60.8°F16.0°C -5537.2°C - 8.0 mph NW12.9 kmh NW 15.9 mph25.6 kmh 25.16 in852.0 mb 0.00 in0.0 mm 0.00 in/hr0.0 mm/hr 0.00 in0.0 mm
03:29 PM 60.6°F15.9°C -5537.2°C - 8.0 mph NW12.9 kmh NW 12.1 mph19.5 kmh 25.16 in852.0 mb 0.00 in0.0 mm 0.00 in/hr0.0 mm/hr 0.00 in0.0 mm
03:34 PM 60.4°F15.8°C -5537.2°C - 6.0 mph WSW9.7 kmh WSW 9.2 mph14.8 kmh 25.16 in852.0 mb 0.00 in0.0 mm 0.00 in/hr0.0 mm/hr 0.00 in0.0 mm
03:39 PM 60.3°F15.7°C -5537.2°C - 4.0 mph SSW6.4 kmh SSW 6.3 mph10.1 kmh 25.16 in852.0 mb 0.00 in0.0 mm 0.00 in/hr0.0 mm/hr 0.00 in0.0 mm
03:44 PM 59.9°F15.5°C -5537.2°C - 4.0 mph SSE6.4 kmh SSE 8.7 mph14.0 kmh 25.16 in852.0 mb 0.00 in0.0 mm 0.00 in/hr0.0 mm/hr 0.00 in0.0 mm
03:49 PM 60.4°F15.8°C -5537.2°C - 5.0 mph ESE8.0 kmh ESE 6.9 mph11.1 kmh 25.16 in852.0 mb 0.00 in0.0 mm 0.00 in/hr0.0 mm/hr 0.00 in0.0 mm
03:54 PM 60.4°F15.8°C -5537.2°C - 5.0 mph NE8.0 kmh NE 11.2 mph18.0 kmh 25.16 in852.0 mb 0.00 in0.0 mm 0.00 in/hr0.0 mm/hr 0.00 in0.0 mm
03:59 PM 60.4°F15.8°C -5537.2°C - 6.0 mph N9.7 kmh N 10.5 mph16.9 kmh 25.16 in852.0 mb 0.00 in0.0 mm 0.00 in/hr0.0 mm/hr 0.00 in0.0 mm
04:05 PM 59.7°F15.4°C -5537.2°C - 7.0 mph NNE11.3 kmh NNE 11.6 mph18.7 kmh 25.16 in852.0 mb 0.00 in0.0 mm 0.00 in/hr0.0 mm/hr 0.00 in0.0 mm
04:10 PM 59.2°F15.1°C -5537.2°C - 7.0 mph NE11.3 kmh NE 11.0 mph17.7 kmh 25.16 in852.0 mb 0.00 in0.0 mm 0.00 in/hr0.0 mm/hr 0.00 in0.0 mm
04:15 PM 59.2°F15.1°C -5537.2°C - 5.0 mph NE8.0 kmh NE 11.0 mph17.7 kmh 25.16 in852.0 mb 0.00 in0.0 mm 0.00 in/hr0.0 mm/hr 0.00 in0.0 mm
04:20 PM 59.4°F15.2°C -5537.2°C - 5.0 mph NNE8.0 kmh NNE 9.2 mph14.8 kmh 25.16 in852.0 mb 0.00 in0.0 mm 0.00 in/hr0.0 mm/hr 0.00 in0.0 mm
04:25 PM 59.7°F15.4°C -5537.2°C - 6.0 mph NE9.7 kmh NE 12.5 mph20.1 kmh 25.16 in852.0 mb 0.00 in0.0 mm 0.00 in/hr0.0 mm/hr 0.00 in0.0 mm
04:30 PM 59.7°F15.4°C -5537.2°C - 7.0 mph NNE11.3 kmh NNE 10.5 mph16.9 kmh 25.16 in852.0 mb 0.00 in0.0 mm 0.00 in/hr0.0 mm/hr 0.00 in0.0 mm
04:35 PM 60.1°F15.6°C -5537.2°C - 5.0 mph N8.0 kmh N 10.1 mph16.3 kmh 25.16 in852.0 mb 0.00 in0.0 mm 0.00 in/hr0.0 mm/hr 0.00 in0.0 mm
04:40 PM 60.3°F15.7°C -5537.2°C - 4.0 mph N6.4 kmh N 7.8 mph12.6 kmh 25.16 in852.0 mb 0.00 in0.0 mm 0.00 in/hr0.0 mm/hr 0.00 in0.0 mm
04:45 PM 59.7°F15.4°C -5537.2°C - 4.0 mph ENE6.4 kmh ENE 9.2 mph14.8 kmh 25.16 in852.0 mb 0.00 in0.0 mm 0.00 in/hr0.0 mm/hr 0.00 in0.0 mm
04:50 PM 60.3°F15.7°C -5537.2°C - 4.0 mph E6.4 kmh E 5.8 mph9.3 kmh 25.16 in852.0 mb 0.00 in0.0 mm 0.00 in/hr0.0 mm/hr 0.00 in0.0 mm
04:55 PM 60.4°F15.8°C -5537.2°C - 4.0 mph ESE6.4 kmh ESE 10.1 mph16.3 kmh 25.16 in852.0 mb 0.00 in0.0 mm 0.00 in/hr0.0 mm/hr 0.00 in0.0 mm
05:00 PM 60.4°F15.8°C -5537.2°C - 5.0 mph ESE8.0 kmh ESE 10.5 mph16.9 kmh 25.16 in852.0 mb 0.00 in0.0 mm 0.00 in/hr0.0 mm/hr 0.00 in0.0 mm
05:05 PM 60.3°F15.7°C -5537.2°C - 6.0 mph SE9.7 kmh SE 10.1 mph16.3 kmh 25.16 in852.0 mb 0.00 in0.0 mm 0.00 in/hr0.0 mm/hr 0.00 in0.0 mm
05:10 PM 60.1°F15.6°C -5537.2°C - 6.0 mph SE9.7 kmh SE 11.2 mph18.0 kmh 25.16 in852.0 mb 0.00 in0.0 mm 0.00 in/hr0.0 mm/hr 0.00 in0.0 mm
05:15 PM 60.1°F15.6°C -5537.2°C - 5.0 mph SE8.0 kmh SE 7.8 mph12.6 kmh 25.16 in852.0 mb 0.00 in0.0 mm 0.00 in/hr0.0 mm/hr 0.00 in0.0 mm
05:20 PM 60.3°F15.7°C -5537.2°C - 4.0 mph SE6.4 kmh SE 6.7 mph10.8 kmh 25.16 in852.0 mb 0.00 in0.0 mm 0.00 in/hr0.0 mm/hr 0.00 in0.0 mm
05:25 PM 60.4°F15.8°C -5537.2°C - 4.0 mph SE6.4 kmh SE 8.3 mph13.4 kmh 25.16 in852.0 mb 0.00 in0.0 mm 0.00 in/hr0.0 mm/hr 0.00 in0.0 mm
05:30 PM 60.1°F15.6°C -5537.2°C - 4.0 mph SE6.4 kmh SE 6.9 mph11.1 kmh 25.16 in852.0 mb 0.00 in0.0 mm 0.00 in/hr0.0 mm/hr 0.00 in0.0 mm
05:35 PM 59.5°F15.3°C -5537.2°C - 4.0 mph ESE6.4 kmh ESE 6.7 mph10.8 kmh 25.16 in852.0 mb 0.00 in0.0 mm 0.00 in/hr0.0 mm/hr 0.00 in0.0 mm
05:40 PM 59.7°F15.4°C -5537.2°C - 4.0 mph E6.4 kmh E 6.3 mph10.1 kmh 25.16 in852.0 mb 0.00 in0.0 mm 0.00 in/hr0.0 mm/hr 0.00 in0.0 mm
05:45 PM 59.5°F15.3°C -5537.2°C - 4.0 mph ESE6.4 kmh ESE 5.8 mph9.3 kmh 25.16 in852.0 mb 0.00 in0.0 mm 0.00 in/hr0.0 mm/hr 0.00 in0.0 mm
05:50 PM 59.4°F15.2°C -5537.2°C - 3.0 mph SE4.8 kmh SE 4.9 mph7.9 kmh 25.16 in852.0 mb 0.00 in0.0 mm 0.00 in/hr0.0 mm/hr 0.00 in0.0 mm
05:55 PM 59.0°F15.0°C -5537.2°C - 2.0 mph ESE3.2 kmh ESE 5.8 mph9.3 kmh 25.16 in852.0 mb 0.00 in0.0 mm 0.00 in/hr0.0 mm/hr 0.00 in0.0 mm
06:00 PM 58.8°F14.9°C -5537.2°C - 3.0 mph E4.8 kmh E 5.8 mph9.3 kmh 25.16 in852.0 mb 0.00 in0.0 mm 0.00 in/hr0.0 mm/hr 0.00 in0.0 mm
06:05 PM 58.6°F14.8°C -5537.2°C - 4.0 mph E6.4 kmh E 6.7 mph10.8 kmh 25.16 in852.0 mb 0.00 in0.0 mm 0.00 in/hr0.0 mm/hr 0.00 in0.0 mm
06:10 PM 58.6°F14.8°C -5537.2°C - 4.0 mph E6.4 kmh E 4.9 mph7.9 kmh 25.16 in852.0 mb 0.00 in0.0 mm 0.00 in/hr0.0 mm/hr 0.00 in0.0 mm
06:15 PM 58.5°F14.7°C -5537.2°C - 3.0 mph E4.8 kmh E 4.5 mph7.2 kmh 25.16 in852.0 mb 0.00 in0.0 mm 0.00 in/hr0.0 mm/hr 0.00 in0.0 mm
06:20 PM 58.5°F14.7°C -5537.2°C - 3.0 mph E4.8 kmh E 4.5 mph7.2 kmh 25.16 in852.0 mb 0.00 in0.0 mm 0.00 in/hr0.0 mm/hr 0.00 in0.0 mm
06:25 PM 58.3°F14.6°C -5537.2°C - 3.0 mph E4.8 kmh E 4.5 mph7.2 kmh 25.16 in852.0 mb 0.00 in0.0 mm 0.00 in/hr0.0 mm/hr 0.00 in0.0 mm
06:30 PM 57.9°F14.4°C -5537.2°C - 4.0 mph E6.4 kmh E 6.7 mph10.8 kmh 25.16 in852.0 mb 0.00 in0.0 mm 0.00 in/hr0.0 mm/hr 0.00 in0.0 mm
06:35 PM 57.9°F14.4°C -5537.2°C - 5.0 mph ESE8.0 kmh ESE 7.8 mph12.6 kmh 25.16 in852.0 mb 0.00 in0.0 mm 0.00 in/hr0.0 mm/hr 0.00 in0.0 mm
06:40 PM 57.7°F14.3°C -5537.2°C - 5.0 mph ESE8.0 kmh ESE 7.4 mph11.9 kmh 25.16 in852.0 mb 0.00 in0.0 mm 0.00 in/hr0.0 mm/hr 0.00 in0.0 mm
06:45 PM 57.6°F14.2°C -5537.2°C - 5.0 mph ESE8.0 kmh ESE 7.8 mph12.6 kmh 25.16 in852.0 mb 0.00 in0.0 mm 0.00 in/hr0.0 mm/hr 0.00 in0.0 mm
06:50 PM 57.6°F14.2°C -5537.2°C - 6.0 mph ESE9.7 kmh ESE 8.3 mph13.4 kmh 25.16 in852.0 mb 0.00 in0.0 mm 0.00 in/hr0.0 mm/hr 0.00 in0.0 mm
06:55 PM 57.6°F14.2°C -5537.2°C - 6.0 mph ESE9.7 kmh ESE 7.4 mph11.9 kmh 25.16 in852.0 mb 0.00 in0.0 mm 0.00 in/hr0.0 mm/hr 0.00 in0.0 mm
07:00 PM 57.0°F13.9°C -5537.2°C - 5.0 mph ESE8.0 kmh ESE 6.3 mph10.1 kmh 25.16 in852.0 mb 0.00 in0.0 mm 0.00 in/hr0.0 mm/hr 0.00 in0.0 mm
07:05 PM 55.8°F13.2°C -5537.2°C - 4.0 mph SE6.4 kmh SE 6.7 mph10.8 kmh 25.16 in852.0 mb 0.00 in0.0 mm 0.00 in/hr0.0 mm/hr 0.00 in0.0 mm
07:10 PM 55.0°F12.8°C -5537.2°C - 4.0 mph SE6.4 kmh SE 4.9 mph7.9 kmh 25.16 in852.0 mb 0.00 in0.0 mm 0.00 in/hr0.0 mm/hr 0.00 in0.0 mm
07:15 PM 54.1°F12.3°C -5537.2°C - 4.0 mph SE6.4 kmh SE 5.4 mph8.7 kmh 25.16 in852.0 mb 0.00 in0.0 mm 0.00 in/hr0.0 mm/hr 0.00 in0.0 mm
07:20 PM 53.8°F12.1°C 4.1°F-15.5°C 13% 4.0 mph SE6.4 kmh SE 5.4 mph8.7 kmh 25.16 in852.0 mb 0.00 in0.0 mm 0.00 in/hr0.0 mm/hr 0.00 in0.0 mm
07:26 PM 53.6°F12.0°C 3.9°F-15.6°C 13% 4.0 mph SE6.4 kmh SE 5.4 mph8.7 kmh 25.16 in852.0 mb 0.00 in0.0 mm 0.00 in/hr0.0 mm/hr 0.00 in0.0 mm
07:31 PM 53.2°F11.8°C 3.7°F-15.7°C 13% 4.0 mph SE6.4 kmh SE 4.9 mph7.9 kmh 25.16 in852.0 mb 0.00 in0.0 mm 0.00 in/hr0.0 mm/hr 0.00 in0.0 mm
07:36 PM 53.1°F11.7°C 3.6°F-15.8°C 13% 3.0 mph SE4.8 kmh SE 4.9 mph7.9 kmh 25.16 in852.0 mb 0.00 in0.0 mm 0.00 in/hr0.0 mm/hr 0.00 in0.0 mm
07:41 PM 52.3°F11.3°C 3.0°F-16.1°C 13% 3.0 mph SE4.8 kmh SE 5.4 mph8.7 kmh 25.16 in852.0 mb 0.00 in0.0 mm 0.00 in/hr0.0 mm/hr 0.00 in0.0 mm
07:46 PM 52.2°F11.2°C 2.8°F-16.2°C 13% 2.0 mph SE3.2 kmh SE 4.5 mph7.2 kmh 25.16 in852.0 mb 0.00 in0.0 mm 0.00 in/hr0.0 mm/hr 0.00 in0.0 mm
07:51 PM 52.3°F11.3°C 3.0°F-16.1°C 13% 2.0 mph SE3.2 kmh SE 4.5 mph7.2 kmh 25.16 in852.0 mb 0.00 in0.0 mm 0.00 in/hr0.0 mm/hr 0.00 in0.0 mm
07:56 PM 53.2°F11.8°C 3.7°F-15.7°C 13% 3.0 mph SSE4.8 kmh SSE 8.7 mph14.0 kmh 25.16 in852.0 mb 0.00 in0.0 mm 0.00 in/hr0.0 mm/hr 0.00 in0.0 mm
08:01 PM 52.7°F11.5°C 3.2°F-16.0°C 13% 4.0 mph SSE6.4 kmh SSE 5.4 mph8.7 kmh 25.16 in852.0 mb 0.00 in0.0 mm 0.00 in/hr0.0 mm/hr 0.00 in0.0 mm
08:06 PM 51.8°F11.0°C 2.5°F-16.4°C 13% 4.0 mph SSE6.4 kmh SSE 5.4 mph8.7 kmh 25.16 in852.0 mb 0.00 in0.0 mm 0.00 in/hr0.0 mm/hr 0.00 in0.0 mm
08:11 PM 51.8°F11.0°C 2.5°F-16.4°C 13% 4.0 mph SE6.4 kmh SE 6.9 mph11.1 kmh 25.19 in853.0 mb 0.00 in0.0 mm 0.00 in/hr0.0 mm/hr 0.00 in0.0 mm
08:16 PM 52.2°F11.2°C 2.8°F-16.2°C 13% 5.0 mph SE8.0 kmh SE 6.9 mph11.1 kmh 25.19 in853.0 mb 0.00 in0.0 mm 0.00 in/hr0.0 mm/hr 0.00 in0.0 mm
08:21 PM 51.8°F11.0°C 7.0°F-13.9°C 16% 5.0 mph SE8.0 kmh SE 6.3 mph10.1 kmh 25.19 in853.0 mb 0.00 in0.0 mm 0.00 in/hr0.0 mm/hr 0.00 in0.0 mm
08:26 PM 51.6°F10.9°C 2.5°F-16.4°C 13% 5.0 mph SE8.0 kmh SE 6.3 mph10.1 kmh 25.19 in853.0 mb 0.00 in0.0 mm 0.00 in/hr0.0 mm/hr 0.00 in0.0 mm
08:31 PM 51.8°F11.0°C 2.5°F-16.4°C 13% 5.0 mph SE8.0 kmh SE 6.3 mph10.1 kmh 25.19 in853.0 mb 0.00 in0.0 mm 0.00 in/hr0.0 mm/hr 0.00 in0.0 mm
08:36 PM 51.1°F10.6°C 1.9°F-16.7°C 13% 4.0 mph SE6.4 kmh SE 6.7 mph10.8 kmh 25.19 in853.0 mb 0.00 in0.0 mm 0.00 in/hr0.0 mm/hr 0.00 in0.0 mm
08:41 PM 50.7°F10.4°C 3.2°F-16.0°C 14% 3.0 mph SE4.8 kmh SE 4.0 mph6.4 kmh 25.19 in853.0 mb 0.00 in0.0 mm 0.00 in/hr0.0 mm/hr 0.00 in0.0 mm
08:46 PM 50.4°F10.2°C 3.0°F-16.1°C 14% Calm Calm -- 25.19 in853.0 mb 0.00 in0.0 mm 0.00 in/hr0.0 mm/hr 0.00 in0.0 mm
08:51 PM 50.2°F10.1°C 2.8°F-16.2°C 14% Calm Calm 2.7 mph4.3 kmh 25.19 in853.0 mb 0.00 in0.0 mm 0.00 in/hr0.0 mm/hr 0.00 in0.0 mm
08:56 PM 50.0°F10.0°C 2.7°F-16.3°C 14% Calm Calm -- 25.19 in853.0 mb 0.00 in0.0 mm 0.00 in/hr0.0 mm/hr 0.00 in0.0 mm
09:01 PM 49.6°F9.8°C 2.5°F-16.4°C 14% Calm Calm 4.0 mph6.4 kmh 25.19 in853.0 mb 0.00 in0.0 mm 0.00 in/hr0.0 mm/hr 0.00 in0.0 mm
09:06 PM 50.2°F10.1°C 2.8°F-16.2°C 14% 1.0 mph SE1.6 kmh SE 3.6 mph5.8 kmh 25.19 in853.0 mb 0.00 in0.0 mm 0.00 in/hr0.0 mm/hr 0.00 in0.0 mm
09:12 PM 51.3°F10.7°C 2.1°F-16.6°C 13% 2.0 mph SE3.2 kmh SE 4.5 mph7.2 kmh 25.19 in853.0 mb 0.00 in0.0 mm 0.00 in/hr0.0 mm/hr 0.00 in0.0 mm
09:17 PM 51.3°F10.7°C 2.1°F-16.6°C 13% 3.0 mph SE4.8 kmh SE 5.4 mph8.7 kmh 25.19 in853.0 mb 0.00 in0.0 mm 0.00 in/hr0.0 mm/hr 0.00 in0.0 mm
09:22 PM 51.1°F10.6°C 1.9°F-16.7°C 13% 4.0 mph SE6.4 kmh SE 5.4 mph8.7 kmh 25.19 in853.0 mb 0.00 in0.0 mm 0.00 in/hr0.0 mm/hr 0.00 in0.0 mm
09:27 PM 50.9°F10.5°C -1.7°F-18.7°C 11% 4.0 mph SSE6.4 kmh SSE 4.9 mph7.9 kmh 25.19 in853.0 mb 0.00 in0.0 mm 0.00 in/hr0.0 mm/hr 0.00 in0.0 mm
09:32 PM 50.5°F10.3°C -2.0°F-18.9°C 11% 3.0 mph SSE4.8 kmh SSE 4.9 mph7.9 kmh 25.19 in853.0 mb 0.00 in0.0 mm 0.00 in/hr0.0 mm/hr 0.00 in0.0 mm
09:37 PM 50.5°F10.3°C -2.0°F-18.9°C 11% 3.0 mph SSE4.8 kmh SSE 4.9 mph7.9 kmh 25.19 in853.0 mb 0.00 in0.0 mm 0.00 in/hr0.0 mm/hr 0.00 in0.0 mm
09:42 PM 50.9°F10.5°C -1.7°F-18.7°C 11% 3.0 mph SE4.8 kmh SE 4.9 mph7.9 kmh 25.19 in853.0 mb 0.00 in0.0 mm 0.00 in/hr0.0 mm/hr 0.00 in0.0 mm
09:47 PM 51.3°F10.7°C -1.5°F-18.6°C 11% 4.0 mph SE6.4 kmh SE 5.8 mph9.3 kmh 25.19 in853.0 mb 0.00 in0.0 mm 0.00 in/hr0.0 mm/hr 0.00 in0.0 mm
09:52 PM 50.7°F10.4°C -1.8°F-18.8°C 11% 3.0 mph SE4.8 kmh SE 4.5 mph7.2 kmh 25.19 in853.0 mb 0.00 in0.0 mm 0.00 in/hr0.0 mm/hr 0.00 in0.0 mm
09:57 PM 50.7°F10.4°C -1.8°F-18.8°C 11% 2.0 mph SE3.2 kmh SE 3.6 mph5.8 kmh 25.19 in853.0 mb 0.00 in0.0 mm 0.00 in/hr0.0 mm/hr 0.00 in0.0 mm
10:02 PM 50.9°F10.5°C -1.7°F-18.7°C 11% 2.0 mph SE3.2 kmh SE 3.6 mph5.8 kmh 25.19 in853.0 mb 0.00 in0.0 mm 0.00 in/hr0.0 mm/hr 0.00 in0.0 mm
10:07 PM 50.7°F10.4°C -1.8°F-18.8°C 11% 3.0 mph SE4.8 kmh SE 5.4 mph8.7 kmh 25.19 in853.0 mb 0.00 in0.0 mm 0.00 in/hr0.0 mm/hr 0.00 in0.0 mm
10:12 PM 49.8°F9.9°C -2.6°F-19.2°C 11% 4.0 mph SE6.4 kmh SE 4.9 mph7.9 kmh 25.19 in853.0 mb 0.00 in0.0 mm 0.00 in/hr0.0 mm/hr 0.00 in0.0 mm
10:17 PM 49.3°F9.6°C -2.9°F-19.4°C 11% 3.0 mph SE4.8 kmh SE 4.0 mph6.4 kmh 25.19 in853.0 mb 0.00 in0.0 mm 0.00 in/hr0.0 mm/hr 0.00 in0.0 mm
10:22 PM 50.0°F10.0°C -2.4°F-19.1°C 11% 3.0 mph SE4.8 kmh SE 5.4 mph8.7 kmh 25.19 in853.0 mb 0.00 in0.0 mm 0.00 in/hr0.0 mm/hr 0.00 in0.0 mm
10:27 PM 50.4°F10.2°C -2.2°F-19.0°C 11% 4.0 mph SE6.4 kmh SE 6.3 mph10.1 kmh 25.19 in853.0 mb 0.00 in0.0 mm 0.00 in/hr0.0 mm/hr 0.00 in0.0 mm
10:32 PM 50.4°F10.2°C -2.2°F-19.0°C 11% 4.0 mph SE6.4 kmh SE 7.4 mph11.9 kmh 25.19 in853.0 mb 0.00 in0.0 mm 0.00 in/hr0.0 mm/hr 0.00 in0.0 mm
10:37 PM 50.0°F10.0°C -2.4°F-19.1°C 11% 4.0 mph SE6.4 kmh SE 6.9 mph11.1 kmh 25.19 in853.0 mb 0.00 in0.0 mm 0.00 in/hr0.0 mm/hr 0.00 in0.0 mm
10:42 PM 50.4°F10.2°C -2.2°F-19.0°C 11% 4.0 mph ESE6.4 kmh ESE 7.4 mph11.9 kmh 25.19 in853.0 mb 0.00 in0.0 mm 0.00 in/hr0.0 mm/hr 0.00 in0.0 mm
10:48 PM 50.7°F10.4°C -1.8°F-18.8°C 11% 5.0 mph ESE8.0 kmh ESE 7.4 mph11.9 kmh 25.19 in853.0 mb 0.00 in0.0 mm 0.00 in/hr0.0 mm/hr 0.00 in0.0 mm
10:53 PM 49.8°F9.9°C -2.6°F-19.2°C 11% 4.0 mph SE6.4 kmh SE 5.4 mph8.7 kmh 25.19 in853.0 mb 0.00 in0.0 mm 0.00 in/hr0.0 mm/hr 0.00 in0.0 mm
10:58 PM 50.2°F10.1°C -2.2°F-19.0°C 11% 4.0 mph SE6.4 kmh SE 4.5 mph7.2 kmh 25.19 in853.0 mb 0.00 in0.0 mm 0.00 in/hr0.0 mm/hr 0.00 in0.0 mm
11:03 PM 49.5°F9.7°C -2.7°F-19.3°C 11% 3.0 mph ESE4.8 kmh ESE 4.9 mph7.9 kmh 25.19 in853.0 mb 0.00 in0.0 mm 0.00 in/hr0.0 mm/hr 0.00 in0.0 mm
11:08 PM 49.1°F9.5°C -3.1°F-19.5°C 11% 4.0 mph ESE6.4 kmh ESE 5.4 mph8.7 kmh 25.19 in853.0 mb 0.00 in0.0 mm 0.00 in/hr0.0 mm/hr 0.00 in0.0 mm
11:13 PM 49.1°F9.5°C -3.1°F-19.5°C 11% 4.0 mph E6.4 kmh E 6.3 mph10.1 kmh 25.19 in853.0 mb 0.00 in0.0 mm 0.00 in/hr0.0 mm/hr 0.00 in0.0 mm
11:18 PM 48.6°F9.2°C 1.6°F-16.9°C 14% 4.0 mph E6.4 kmh E 4.9 mph7.9 kmh 25.19 in853.0 mb 0.00 in0.0 mm 0.00 in/hr0.0 mm/hr 0.00 in0.0 mm
11:23 PM 48.2°F9.0°C 1.2°F-17.1°C 14% 4.0 mph E6.4 kmh E 5.4 mph8.7 kmh 25.19 in853.0 mb 0.00 in0.0 mm 0.00 in/hr0.0 mm/hr 0.00 in0.0 mm
11:28 PM 47.5°F8.6°C 3.6°F-15.8°C 16% 4.0 mph ESE6.4 kmh ESE 4.9 mph7.9 kmh 25.19 in853.0 mb 0.00 in0.0 mm 0.00 in/hr0.0 mm/hr 0.00 in0.0 mm
11:33 PM 46.4°F8.0°C 3.9°F-15.6°C 17% 3.0 mph ESE4.8 kmh ESE 4.5 mph7.2 kmh 25.19 in853.0 mb 0.00 in0.0 mm 0.00 in/hr0.0 mm/hr 0.00 in0.0 mm
11:38 PM 44.8°F7.1°C 6.3°F-14.3°C 20% 2.0 mph SE3.2 kmh SE 4.5 mph7.2 kmh 25.19 in853.0 mb 0.00 in0.0 mm 0.00 in/hr0.0 mm/hr 0.00 in0.0 mm
11:43 PM 44.1°F6.7°C 7.7°F-13.5°C 22% 3.0 mph SE4.8 kmh SE 4.9 mph7.9 kmh 25.19 in853.0 mb 0.00 in0.0 mm 0.00 in/hr0.0 mm/hr 0.00 in0.0 mm
11:48 PM 43.9°F6.6°C 10.4°F-12.0°C 25% 3.0 mph SE4.8 kmh SE 4.5 mph7.2 kmh 25.19 in853.0 mb 0.00 in0.0 mm 0.00 in/hr0.0 mm/hr 0.00 in0.0 mm
11:53 PM 44.8°F7.1°C 11.1°F-11.6°C 25% 2.0 mph SE3.2 kmh SE 4.5 mph7.2 kmh 25.19 in853.0 mb 0.00 in0.0 mm 0.00 in/hr0.0 mm/hr 0.00 in0.0 mm
11:58 PM 44.2°F6.8°C 13.3°F-10.4°C 28% 2.0 mph ESE3.2 kmh ESE 4.5 mph7.2 kmh 25.19 in853.0 mb 0.00 in0.0 mm 0.00 in/hr0.0 mm/hr 0.00 in0.0 mm